Time;durP1;ratioP1;P1;durP2;ratioP2;P2;SDS_P1;SDS_P2;PMS_P1;PMS_P2;Temp;Humidity;BMP_temperature;BMP_pressure;BME280_temperature;BME280_humidity;BME280_pressure;Samples;Min_cycle;Max_cycle;Signal;HPM_P1;HPM_P2
2023/01/25 00:00:40;;;;;;;;;50.33;43.67;;;;;6.43;100.00;102761.50;4970124;28;45629;-82
2023/01/25 00:03:05;;;;;;;;;44.00;37.00;;;;;6.47;100.00;102769.72;4987291;28;45403;-82
2023/01/25 00:05:31;;;;;;;;;53.33;43.33;;;;;6.45;100.00;102765.16;4972059;28;45509;-82
2023/01/25 00:07:56;;;;;;;;;50.67;44.33;;;;;6.47;100.00;102774.09;4988819;28;45429;-81
2023/01/25 00:10:21;;;;;;;;;34.00;33.00;;;;;6.43;100.00;102765.06;4989085;28;45311;-81
2023/01/25 00:12:47;;;;;;;;;45.33;39.00;;;;;6.47;100.00;102767.06;4971831;28;45624;-82
2023/01/25 00:15:12;;;;;;;;;49.00;42.00;;;;;6.50;100.00;102768.97;4972049;28;45312;-82
2023/01/25 00:17:38;;;;;;;;;46.50;39.00;;;;;6.46;100.00;102761.69;4970583;28;48220;-81
2023/01/25 00:20:04;;;;;;;;;45.67;35.33;;;;;6.41;100.00;102761.41;4987580;28;45379;-81
2023/01/25 00:22:29;;;;;;;;;40.00;34.67;;;;;6.38;100.00;102771.75;4986026;28;45376;-81
2023/01/25 00:24:55;;;;;;;;;44.00;40.00;;;;;6.36;100.00;102765.47;4986489;28;45401;-82
2023/01/25 00:27:20;;;;;;;;;53.00;42.33;;;;;6.32;100.00;102763.44;5004210;28;45381;-82
2023/01/25 00:29:45;;;;;;;;;57.00;43.00;;;;;6.33;100.00;102765.28;5010222;28;45699;-82
2023/01/25 00:32:14;;;;;;;;;54.00;41.67;;;;;6.50;100.00;102763.69;4989854;28;45410;-81
2023/01/25 00:34:45;;;;;;;;;53.67;42.33;;;;;6.45;100.00;102755.50;4990348;28;45493;-82
2023/01/25 00:37:17;;;;;;;;;49.33;42.33;;;;;6.53;100.00;102759.53;5007329;28;45496;-82
2023/01/25 00:39:43;;;;;;;;;49.67;41.33;;;;;6.39;100.00;102766.56;5006916;28;45379;-82
2023/01/25 00:42:12;;;;;;;;;50.33;42.67;;;;;6.47;100.00;102768.81;4990397;28;45439;-82
2023/01/25 00:44:39;;;;;;;;;57.33;44.33;;;;;6.46;100.00;102766.97;5009239;28;45356;-82
2023/01/25 00:47:05;;;;;;;;;43.67;42.00;;;;;6.39;100.00;102765.69;4989617;28;47021;-83
2023/01/25 00:49:31;;;;;;;;;45.67;39.33;;;;;6.36;100.00;102757.53;4988352;28;45356;-81
2023/01/25 00:51:57;;;;;;;;;44.33;41.00;;;;;6.40;100.00;102755.22;5007169;28;45451;-81
2023/01/25 00:54:23;;;;;;;;;52.25;41.25;;;;;6.31;100.00;102743.13;4988898;28;45360;-81
2023/01/25 00:56:53;;;;;;;;;42.33;33.33;;;;;6.34;100.00;102751.25;4990685;28;47029;-81
2023/01/25 00:59:20;;;;;;;;;59.75;43.75;;;;;6.24;100.00;102740.91;5007905;28;45459;-81
2023/01/25 01:01:45;;;;;;;;;37.33;31.67;;;;;6.26;100.00;102752.47;4990737;28;45358;-81
2023/01/25 01:04:10;;;;;;;;;47.67;38.67;;;;;6.22;100.00;102751.38;5009447;28;45404;-82
2023/01/25 01:06:40;;;;;;;;;43.33;33.33;;;;;6.28;100.00;102750.84;5008632;28;45452;-82
2023/01/25 01:09:10;;;;;;;;;44.33;38.00;;;;;6.19;100.00;102749.44;4991062;28;45460;-82
2023/01/25 01:11:35;;;;;;;;;41.33;33.67;;;;;6.11;100.00;102750.69;5007465;28;45377;-82
2023/01/25 01:14:02;;;;;;;;;48.67;39.33;;;;;6.16;100.00;102743.97;4989284;28;45455;-81
2023/01/25 01:16:28;;;;;;;;;45.00;38.67;;;;;6.08;100.00;102745.22;4990470;28;48369;-82
2023/01/25 01:18:53;;;;;;;;;42.33;39.00;;;;;6.13;100.00;102741.13;4989796;28;45250;-82
2023/01/25 01:21:19;;;;;;;;;45.00;38.67;;;;;6.25;100.00;102748.94;5007208;28;45400;-82
2023/01/25 01:23:45;;;;;;;;;47.00;39.33;;;;;6.18;100.00;102745.00;5007321;28;45669;-82
2023/01/25 01:26:14;;;;;;;;;54.00;42.00;;;;;6.24;100.00;102748.81;4989736;28;47455;-82
2023/01/25 01:28:40;;;;;;;;;46.00;42.33;;;;;6.06;100.00;102744.22;5010260;28;45422;-81
2023/01/25 01:31:17;;;;;;;;;44.33;38.67;;;;;6.11;100.00;102732.19;4989844;28;45364;-82
2023/01/25 01:33:43;;;;;;;;;45.67;42.00;;;;;6.02;100.00;102742.19;4990788;28;45392;-82
2023/01/25 01:36:11;;;;;;;;;42.33;37.00;;;;;6.17;100.00;102743.16;5006234;28;45344;-82
2023/01/25 01:38:37;;;;;;;;;47.33;41.33;;;;;6.19;100.00;102743.25;4988650;28;45538;-82
2023/01/25 01:41:02;;;;;;;;;57.33;41.67;;;;;6.18;100.00;102739.72;5006312;28;45418;-82
2023/01/25 01:43:29;;;;;;;;;50.00;41.00;;;;;6.19;100.00;102736.25;4989261;28;45504;-82
2023/01/25 01:45:59;;;;;;;;;49.67;41.33;;;;;6.26;100.00;102732.28;4989660;28;47287;-81
2023/01/25 01:48:52;;;;;;;;;57.67;46.00;;;;;6.48;100.00;102749.47;4989978;28;46037;-82
2023/01/25 01:51:34;;;;;;;;;49.67;42.33;;;;;6.43;100.00;102749.19;4989731;28;45463;-81
2023/01/25 01:57:57;;;;;;;;;57.00;45.67;;;;;6.40;100.00;102767.47;5028618;28;45490;-80
2023/01/25 02:00:28;;;;;;;;;65.33;49.67;;;;;6.36;100.00;102757.53;5027577;28;45450;-80
2023/01/25 02:02:54;;;;;;;;;58.00;47.00;;;;;6.28;100.00;102762.34;5027264;28;45549;-82
2023/01/25 02:05:48;;;;;;;;;44.33;39.00;;;;;6.34;100.00;102757.47;5008327;28;44905;-82
2023/01/25 02:08:14;;;;;;;;;46.67;39.67;;;;;6.26;100.00;102758.69;5006656;28;47092;-82
2023/01/25 02:10:41;;;;;;;;;46.67;35.33;;;;;6.25;100.00;102755.97;5006957;28;45465;-81
2023/01/25 02:13:07;;;;;;;;;49.00;40.33;;;;;6.28;100.00;102770.28;4989640;28;45412;-81
2023/01/25 02:15:41;;;;;;;;;57.25;44.00;;;;;6.37;100.00;102767.31;5024501;28;45573;-81
2023/01/25 02:18:09;;;;;;;;;59.00;43.00;;;;;6.31;100.00;102762.53;5006874;28;47359;-81
2023/01/25 02:20:40;;;;;;;;;58.00;43.33;;;;;6.38;100.00;102762.13;5026330;28;45737;-81
2023/01/25 02:23:31;;;;;;;;;54.00;42.33;;;;;6.46;100.00;102766.97;5026729;28;45419;-81
2023/01/25 02:26:00;;;;;;;;;52.33;43.00;;;;;6.37;100.00;102756.75;5007385;28;45569;-81
2023/01/25 02:28:31;;;;;;;;;48.67;42.33;;;;;6.39;100.00;102757.75;5006854;28;46821;-81
2023/01/25 02:30:57;;;;;;;;;60.00;47.00;;;;;6.30;100.00;102767.72;5007933;28;45437;-81
2023/01/25 02:33:24;;;;;;;;;58.33;48.33;;;;;6.30;100.00;102760.72;5006319;28;45398;-82
2023/01/25 02:35:59;;;;;;;;;57.33;47.00;;;;;6.36;100.00;102765.47;5000602;28;46000;-81
2023/01/25 02:38:24;;;;;;;;;58.00;46.33;;;;;6.20;100.00;102767.16;4985659;28;47094;-82
2023/01/25 02:41:16;;;;;;;;;63.33;48.33;;;;;6.30;100.00;102773.00;5004603;28;45526;-82
2023/01/25 02:43:41;;;;;;;;;55.00;43.67;;;;;6.17;100.00;102772.22;4978122;28;45506;-81
2023/01/25 02:46:14;;;;;;;;;62.50;50.00;;;;;6.24;100.00;102767.31;4986568;28;45454;-81
2023/01/25 02:48:39;;;;;;;;;44.33;36.33;;;;;6.10;100.00;102772.66;4988635;28;45643;-81
2023/01/25 02:51:09;;;;;;;;;57.00;47.00;;;;;6.19;100.00;102765.31;5007596;28;45570;-82
2023/01/25 02:53:35;;;;;;;;;65.00;49.25;;;;;6.07;100.00;102767.16;4987186;28;45749;-81
2023/01/25 02:56:00;;;;;;;;;55.33;46.00;;;;;6.13;100.00;102761.38;4988838;28;45635;-81
2023/01/25 02:58:26;;;;;;;;;47.67;40.33;;;;;6.16;100.00;102773.03;5007328;28;45348;-81
2023/01/25 03:00:52;;;;;;;;;53.33;44.00;;;;;6.16;100.00;102757.19;4989429;28;45459;-81
2023/01/25 03:03:18;;;;;;;;;58.67;47.00;;;;;6.15;100.00;102763.28;5005745;28;45296;-82
2023/01/25 03:05:43;;;;;;;;;65.75;49.75;;;;;6.10;100.00;102762.09;5008076;28;44806;-81
2023/01/25 03:08:09;;;;;;;;;53.33;44.67;;;;;6.11;100.00;102761.25;4989263;28;47207;-81
2023/01/25 03:10:34;;;;;;;;;62.00;50.25;;;;;6.12;100.00;102760.44;4990671;28;45686;-81
2023/01/25 03:12:59;;;;;;;;;52.50;45.00;;;;;6.13;100.00;102756.97;4990779;28;45444;-81
2023/01/25 03:15:25;;;;;;;;;66.00;50.33;;;;;6.05;100.00;102755.56;5011742;28;45921;-81
2023/01/25 03:17:50;;;;;;;;;60.50;47.75;;;;;5.99;100.00;102758.72;5009890;28;45446;-80
2023/01/25 03:20:16;;;;;;;;;58.75;45.75;;;;;5.91;100.00;102759.00;5010343;28;45406;-81
2023/01/25 03:26:15;;;;;;;;;65.25;52.50;;;;;5.91;100.00;102757.28;5009779;28;45443;-81
2023/01/25 03:28:41;;;;;;;;;61.67;47.33;;;;;5.77;100.00;102756.38;5010440;28;45479;-81
2023/01/25 03:31:09;;;;;;;;;58.25;46.75;;;;;5.85;100.00;102756.88;4991851;28;44823;-81
2023/01/25 03:33:35;;;;;;;;;46.00;39.50;;;;;5.70;100.00;102747.97;5007841;28;45368;-81
2023/01/25 03:36:01;;;;;;;;;53.75;43.75;;;;;5.69;100.00;102747.03;4995733;28;45489;-81
2023/01/25 03:38:27;;;;;;;;;58.75;49.25;;;;;5.69;100.00;102752.31;4994006;28;47095;-81
2023/01/25 03:40:52;;;;;;;;;61.67;47.67;;;;;5.58;100.00;102743.69;4992138;28;45538;-82
2023/01/25 03:43:18;;;;;;;;;57.00;45.00;;;;;5.60;100.00;102743.78;4992962;28;45304;-81
2023/01/25 03:45:43;;;;;;;;;50.33;42.00;;;;;5.57;100.00;102741.84;4992613;28;45371;-82
2023/01/25 03:48:09;;;;;;;;;60.00;45.75;;;;;5.63;100.00;102741.34;4990760;28;47257;-82
2023/01/25 03:50:34;;;;;;;;;62.25;46.25;;;;;5.60;100.00;102741.16;4992922;28;45705;-82
2023/01/25 03:53:28;;;;;;;;;56.67;44.00;;;;;5.68;100.00;102745.22;4992550;28;45851;-81
2023/01/25 03:56:18;;;;;;;;;64.50;52.00;;;;;5.67;100.00;102745.09;5011418;28;45415;-81
2023/01/25 03:58:44;;;;;;;;;64.00;51.50;;;;;5.48;100.00;102735.06;4988918;28;47515;-82
2023/01/25 04:01:10;;;;;;;;;64.75;50.50;;;;;5.43;100.00;102736.47;4989734;28;45415;-82
2023/01/25 04:03:35;;;;;;;;;40.67;35.67;;;;;5.41;100.00;102734.66;5006781;28;45411;-81
2023/01/25 04:06:01;;;;;;;;;62.25;46.50;;;;;5.39;100.00;102727.44;4990084;28;44766;-82
2023/01/25 04:08:27;;;;;;;;;59.00;45.67;;;;;5.42;100.00;102735.56;5008010;28;45431;-82
2023/01/25 04:10:54;;;;;;;;;50.75;40.75;;;;;5.45;100.00;102732.22;5007807;28;45359;-82
2023/01/25 04:13:21;;;;;;;;;62.25;46.00;;;;;5.47;100.00;102736.75;4990194;28;45464;-82
2023/01/25 04:15:47;;;;;;;;;57.00;44.33;;;;;5.41;100.00;102729.38;4989826;28;45533;-82
2023/01/25 04:18:13;;;;;;;;;66.50;49.75;;;;;5.47;100.00;102738.50;5007477;28;45506;-82
2023/01/25 04:20:39;;;;;;;;;60.25;48.50;;;;;5.45;100.00;102743.66;4990629;28;45510;-81
2023/01/25 04:23:05;;;;;;;;;60.00;47.50;;;;;5.49;100.00;102742.16;4991919;28;45531;-82
2023/01/25 04:25:31;;;;;;;;;56.67;44.00;;;;;5.49;100.00;102731.59;4991188;28;45327;-82
2023/01/25 04:27:57;;;;;;;;;60.33;46.00;;;;;5.56;100.00;102741.78;5007854;28;46285;-81
2023/01/25 04:30:22;;;;;;;;;61.67;46.67;;;;;5.55;100.00;102729.38;5006837;28;45509;-81
2023/01/25 04:32:48;;;;;;;;;62.33;45.33;;;;;5.53;100.00;102734.53;4991814;28;45408;-82
2023/01/25 04:35:13;;;;;;;;;56.67;46.33;;;;;5.61;100.00;102745.59;5009593;28;45403;-81
2023/01/25 04:37:39;;;;;;;;;59.33;46.33;;;;;5.63;100.00;102746.63;5007265;28;45352;-82
2023/01/25 04:40:05;;;;;;;;;63.67;47.67;;;;;5.65;100.00;102737.06;5008589;28;45661;-82
2023/01/25 04:42:30;;;;;;;;;57.67;47.00;;;;;5.64;100.00;102737.91;5007742;28;45724;-82
2023/01/25 04:44:56;;;;;;;;;56.67;43.33;;;;;5.68;100.00;102744.31;4992003;28;45486;-81
2023/01/25 04:47:21;;;;;;;;;57.67;42.67;;;;;5.68;100.00;102732.03;4991928;28;47275;-82
2023/01/25 04:49:46;;;;;;;;;47.33;40.67;;;;;5.66;100.00;102730.09;4990253;28;45407;-82
2023/01/25 04:52:12;;;;;;;;;46.00;35.67;;;;;5.70;100.00;102735.66;4989662;28;45496;-82
2023/01/25 04:54:37;;;;;;;;;59.67;44.67;;;;;5.72;100.00;102726.13;5006386;28;45420;-81
2023/01/25 04:57:03;;;;;;;;;45.67;41.33;;;;;5.76;100.00;102732.53;5006770;28;45471;-81
2023/01/25 04:59:28;;;;;;;;;51.00;39.33;;;;;5.75;100.00;102722.75;4990942;28;45445;-81
2023/01/25 05:01:53;;;;;;;;;52.67;42.67;;;;;5.79;100.00;102724.78;4989954;28;45428;-82
2023/01/25 05:04:19;;;;;;;;;45.33;37.33;;;;;5.80;100.00;102721.34;5007520;28;45447;-82
2023/01/25 05:06:46;;;;;;;;;59.33;46.67;;;;;5.89;100.00;102728.94;4988917;28;47544;-82
2023/01/25 05:09:11;;;;;;;;;61.33;44.33;;;;;5.77;100.00;102726.41;5005823;28;45390;-82
2023/01/25 05:11:37;;;;;;;;;59.00;44.33;;;;;5.77;100.00;102724.69;5006739;28;45376;-82
2023/01/25 05:14:02;;;;;;;;;49.00;42.00;;;;;5.79;100.00;102727.44;4991424;28;45647;-82
2023/01/25 05:16:27;;;;;;;;;43.33;36.33;;;;;5.76;100.00;102729.88;4990999;28;46962;-82
2023/01/25 05:18:56;;;;;;;;;52.33;42.33;;;;;5.84;100.00;102725.09;4991374;28;45421;-82
2023/01/25 05:24:06;;;;;;;;;51.67;43.67;;;;;5.64;100.00;102724.72;5010522;28;44815;-82
2023/01/25 05:29:15;;;;;;;;;45.67;39.00;;;;;5.63;100.00;102709.66;5013117;28;45788;-81
2023/01/25 05:31:41;;;;;;;;;45.33;36.33;;;;;5.67;100.00;102711.69;5009154;28;45459;-81
2023/01/25 05:34:07;;;;;;;;;30.00;22.67;;;;;5.80;100.00;102724.00;5010458;28;45440;-81
2023/01/25 05:36:33;;;;;;;;;42.33;36.33;;;;;5.68;100.00;102708.25;4992172;28;47460;-81
2023/01/25 05:38:58;;;;;;;;;39.67;33.00;;;;;5.75;100.00;102717.47;5007914;28;45420;-81
2023/01/25 05:41:23;;;;;;;;;36.33;30.67;;;;;5.70;100.00;102711.91;5008037;28;45468;-81
2023/01/25 05:43:49;;;;;;;;;36.33;28.00;;;;;5.65;100.00;102710.69;4990388;28;45552;-81
2023/01/25 05:46:15;;;;;;;;;29.33;29.00;;;;;5.74;100.00;102724.50;4990908;28;47548;-82
2023/01/25 05:48:40;;;;;;;;;29.67;24.67;;;;;5.69;100.00;102717.09;5007247;28;45392;-81
2023/01/25 05:51:05;;;;;;;;;15.00;15.00;;;;;5.64;100.00;102719.44;5007818;28;45313;-82
2023/01/25 05:53:44;;;;;;;;;19.33;18.00;;;;;5.74;100.00;102721.84;4981557;28;45628;-81
2023/01/25 05:56:09;;;;;;;;;28.00;28.00;;;;;5.60;100.00;102706.84;4985039;28;45729;-81
2023/01/25 05:58:37;;;;;;;;;38.67;28.33;;;;;5.69;100.00;102703.88;4968686;28;45439;-82
2023/01/25 06:01:05;;;;;;;;;46.67;35.67;;;;;5.67;100.00;102708.16;4986042;28;45423;-81
2023/01/25 06:03:30;;;;;;;;;30.00;28.00;;;;;5.55;100.00;102702.97;4986240;28;45480;-82
2023/01/25 06:05:58;;;;;;;;;25.00;19.00;;;;;5.63;100.00;102712.31;4986128;28;45293;-81
2023/01/25 06:08:24;;;;;;;;;25.67;23.33;;;;;5.59;100.00;102712.91;4988309;28;45447;-82
2023/01/25 06:10:50;;;;;;;;;25.00;22.67;;;;;5.65;100.00;102710.69;4969538;28;45266;-81
2023/01/25 06:13:16;;;;;;;;;21.67;17.33;;;;;5.59;100.00;102712.91;4968810;28;45446;-81
2023/01/25 06:15:42;;;;;;;;;24.67;20.33;;;;;5.63;100.00;102709.66;4969232;28;46879;-82
2023/01/25 06:18:07;;;;;;;;;17.00;14.33;;;;;5.63;100.00;102714.03;4968880;28;45836;-82
2023/01/25 06:20:33;;;;;;;;;23.00;20.33;;;;;5.59;100.00;102707.63;4968220;28;45436;-81
2023/01/25 06:23:36;;;;;;;;;12.00;12.00;;;;;5.74;100.00;102708.66;4986984;28;45530;-81
2023/01/25 06:26:07;;;;;;;;;27.67;24.33;;;;;5.61;100.00;102704.31;4985929;28;45545;-81
2023/01/25 06:28:35;;;;;;;;;27.00;21.67;;;;;5.64;100.00;102708.88;4968317;28;45407;-81
2023/01/25 06:31:12;;;;;;;;;23.00;17.67;;;;;5.69;100.00;102704.78;4986760;28;45842;-81
2023/01/25 06:33:38;;;;;;;;;23.67;17.33;;;;;5.58;100.00;102703.19;4986295;28;45394;-81
2023/01/25 06:36:06;;;;;;;;;27.67;19.33;;;;;5.56;100.00;102713.63;4985755;28;45407;-81
2023/01/25 06:38:32;;;;;;;;;21.00;18.00;;;;;5.48;100.00;102704.31;4985819;28;45912;-81
2023/01/25 06:41:00;;;;;;;;;25.33;20.67;;;;;5.49;100.00;102702.56;5005399;28;45431;-81
2023/01/25 06:43:26;;;;;;;;;21.00;21.00;;;;;5.41;100.00;102710.91;5006389;28;45724;-81
2023/01/25 06:45:51;;;;;;;;;27.67;22.00;;;;;5.29;100.00;102699.53;5005464;28;45484;-82
2023/01/25 06:48:16;;;;;;;;;25.67;22.33;;;;;5.31;100.00;102703.19;4987297;28;45430;-82
2023/01/25 06:50:42;;;;;;;;;25.67;18.67;;;;;5.37;100.00;102706.25;4989790;28;45434;-82
2023/01/25 06:53:07;;;;;;;;;23.33;20.67;;;;;5.34;100.00;102698.09;5006580;28;45409;-82
2023/01/25 06:55:33;;;;;;;;;23.33;23.33;;;;;5.35;100.00;102697.31;4989523;28;47989;-81
2023/01/25 06:58:00;;;;;;;;;24.00;22.33;;;;;5.40;100.00;102695.88;4990287;28;45451;-82
2023/01/25 07:00:26;;;;;;;;;29.00;24.00;;;;;5.36;100.00;102696.47;5004348;28;45419;-84
2023/01/25 07:02:51;;;;;;;;;26.00;18.67;;;;;5.37;100.00;102700.97;4985812;28;45477;-83
2023/01/25 07:05:17;;;;;;;;;18.67;17.00;;;;;5.29;100.00;102681.06;4969083;28;48287;-84
2023/01/25 07:07:45;;;;;;;;;26.00;18.00;;;;;5.45;100.00;102687.34;4969570;28;45453;-82
2023/01/25 07:10:11;;;;;;;;;24.33;20.67;;;;;5.32;100.00;102681.25;4970607;28;45445;-83
2023/01/25 07:12:36;;;;;;;;;24.00;24.00;;;;;5.36;100.00;102679.75;4969812;28;45325;-82
2023/01/25 07:15:02;;;;;;;;;22.67;20.67;;;;;5.36;100.00;102677.09;4968903;28;47106;-83
2023/01/25 07:17:29;;;;;;;;;21.00;17.00;;;;;5.49;100.00;102678.81;4970154;28;45497;-83
2023/01/25 07:19:54;;;;;;;;;19.67;15.67;;;;;5.34;100.00;102674.34;4969377;28;45418;-83
2023/01/25 07:22:19;;;;;;;;;23.67;21.00;;;;;5.37;100.00;102677.22;4985942;28;45475;-82
2023/01/25 07:24:48;;;;;;;;;20.33;20.33;;;;;5.36;100.00;102687.66;4969064;28;47267;-83
2023/01/25 07:27:15;;;;;;;;;19.67;17.00;;;;;5.34;100.00;102684.00;4969655;28;45328;-82
2023/01/25 07:29:42;;;;;;;;;21.00;20.00;;;;;5.37;100.00;102689.47;4987114;28;45548;-83
2023/01/25 07:32:10;;;;;;;;;28.33;25.33;;;;;5.29;100.00;102690.69;4986596;28;45467;-83
2023/01/25 07:34:36;;;;;;;;;25.67;24.67;;;;;5.21;100.00;102687.53;4970526;28;47300;-83
2023/01/25 07:37:01;;;;;;;;;35.00;26.33;;;;;5.23;100.00;102693.81;4978600;28;45392;-83
2023/01/25 07:39:26;;;;;;;;;27.00;24.00;;;;;5.24;100.00;102697.41;5007321;28;45339;-82
2023/01/25 07:41:52;;;;;;;;;25.00;22.67;;;;;5.19;100.00;102691.78;5004857;28;45628;-81
2023/01/25 07:44:17;;;;;;;;;31.00;26.67;;;;;5.03;100.00;102691.56;4983553;28;46861;-82
2023/01/25 07:46:43;;;;;;;;;31.00;26.67;;;;;4.98;100.00;102705.34;4985514;28;45343;-82
2023/01/25 07:49:09;;;;;;;;;29.33;21.67;;;;;5.01;100.00;102699.41;4984582;28;45524;-82
2023/01/25 07:51:35;;;;;;;;;26.33;24.67;;;;;4.84;100.00;102687.69;4968848;28;45614;-81
2023/01/25 07:54:03;;;;;;;;;25.00;23.33;;;;;4.96;100.00;102691.16;4965375;28;48424;-82
2023/01/25 07:56:31;;;;;;;;;33.67;31.33;;;;;4.97;100.00;102693.00;4992181;28;45467;-82
2023/01/25 07:58:58;;;;;;;;;34.00;31.33;;;;;4.94;100.00;102695.41;4998324;28;45459;-83
2023/01/25 08:01:26;;;;;;;;;30.00;26.33;;;;;5.04;100.00;102696.03;4996115;28;45562;-81
2023/01/25 08:03:55;;;;;;;;;46.67;31.00;;;;;5.14;100.00;102702.03;4979763;28;47427;-84
2023/01/25 08:06:30;;;;;;;;;33.67;29.00;;;;;5.17;100.00;102690.78;5000616;28;44814;-80
2023/01/25 08:08:58;;;;;;;;;37.67;31.00;;;;;5.17;100.00;102701.31;4990269;28;45293;-83
2023/01/25 08:11:26;;;;;;;;;32.33;29.33;;;;;5.19;100.00;102690.09;4983247;28;45425;-82
2023/01/25 08:13:52;;;;;;;;;34.67;31.33;;;;;5.09;100.00;102689.34;5012780;28;45439;-83
2023/01/25 08:16:20;;;;;;;;;32.00;27.00;;;;;5.18;100.00;102687.34;4981909;28;45386;-82
2023/01/25 08:18:50;;;;;;;;;32.33;28.00;;;;;5.26;100.00;102696.69;4984696;28;44853;-82
2023/01/25 08:21:16;;;;;;;;;46.33;29.00;;;;;5.16;100.00;102691.59;4982480;28;44862;-83
2023/01/25 08:23:42;;;;;;;;;37.67;32.00;;;;;5.18;100.00;102697.88;4992524;28;45441;-82
2023/01/25 08:26:10;;;;;;;;;28.67;23.33;;;;;5.13;100.00;102672.91;4976650;28;45482;-83
2023/01/25 08:28:36;;;;;;;;;31.00;28.67;;;;;4.98;100.00;102673.72;4980080;28;45367;-83
2023/01/25 08:31:23;;;;;;;;;26.33;25.33;;;;;5.19;100.00;102694.41;4996069;28;45395;-83
2023/01/25 08:33:50;;;;;;;;;29.67;27.33;;;;;5.01;100.00;102691.50;4994065;28;46335;-82
2023/01/25 08:36:17;;;;;;;;;31.67;27.00;;;;;5.07;100.00;102691.91;4993790;28;45517;-82
2023/01/25 08:45:26;;;;;;;;;28.00;22.00;;;;;5.01;100.00;102681.84;5012353;28;45299;-82
2023/01/25 08:47:52;;;;;;;;;23.67;20.67;;;;;4.98;100.00;102684.25;4999225;28;44650;-83
2023/01/25 08:50:17;;;;;;;;;23.67;21.67;;;;;4.97;100.00;102677.16;4996000;28;45583;-83
2023/01/25 08:52:43;;;;;;;;;26.00;26.00;;;;;4.98;100.00;102663.16;5012886;28;45388;-83
2023/01/25 08:55:09;;;;;;;;;23.33;21.33;;;;;4.97;100.00;102661.34;4995953;28;46818;-82
2023/01/25 09:01:02;;;;;;;;;28.67;26.00;;;;;5.05;100.00;102679.41;5013478;28;45122;-83
2023/01/25 09:03:29;;;;;;;;;32.33;26.33;;;;;5.03;100.00;102675.75;5013093;28;44868;-81
2023/01/25 09:05:57;;;;;;;;;27.00;27.00;;;;;5.09;100.00;102671.81;4999397;28;47419;-83
2023/01/25 09:08:24;;;;;;;;;34.67;28.33;;;;;5.11;100.00;102669.25;5000008;28;45404;-79
2023/01/25 09:10:50;;;;;;;;;31.33;28.00;;;;;5.07;100.00;102670.81;5015657;28;45273;-82
2023/01/25 09:13:15;;;;;;;;;19.00;19.00;;;;;5.12;100.00;102677.28;5014726;28;45534;-82
2023/01/25 09:15:41;;;;;;;;;35.33;27.33;;;;;5.13;100.00;102678.19;4995278;28;46653;-80
2023/01/25 09:18:07;;;;;;;;;34.33;30.67;;;;;5.10;100.00;102678.91;5011179;28;45398;-83
2023/01/25 09:20:36;;;;;;;;;26.67;25.00;;;;;5.03;100.00;102670.47;5002248;28;45502;-81
2023/01/25 09:23:05;;;;;;;;;26.67;25.33;;;;;5.13;100.00;102675.56;4973181;28;45269;-80
2023/01/25 09:25:31;;;;;;;;;24.33;21.00;;;;;5.06;100.00;102674.22;4994682;28;45493;-81
2023/01/25 09:27:56;;;;;;;;;28.00;25.00;;;;;5.10;100.00;102671.00;4986384;28;45563;-82
2023/01/25 09:30:22;;;;;;;;;25.00;22.33;;;;;5.10;100.00;102667.44;4992562;28;45451;-82
2023/01/25 09:32:51;;;;;;;;;28.00;25.00;;;;;5.15;100.00;102672.22;4985122;28;45504;-83
2023/01/25 09:35:16;;;;;;;;;27.67;21.33;;;;;4.97;100.00;102671.91;5001340;28;45466;-82
2023/01/25 09:37:43;;;;;;;;;28.33;23.00;;;;;4.87;100.00;102658.91;4985305;28;45376;-82
2023/01/25 09:40:19;;;;;;;;;31.67;26.00;;;;;4.98;100.00;102656.97;4987699;28;45394;-82
2023/01/25 09:43:24;;;;;;;;;30.33;25.00;;;;;5.02;100.00;102666.94;4974035;28;45424;-82
2023/01/25 09:45:49;;;;;;;;;25.67;19.33;;;;;4.76;100.00;102670.41;4946182;28;47596;-80
2023/01/25 09:48:45;;;;;;;;;28.33;22.67;;;;;4.84;100.00;102669.22;4948721;28;45494;-81
2023/01/25 09:54:39;;;;;;;;;20.00;19.33;;;;;4.90;100.00;102671.38;4949783;28;45621;-82
2023/01/25 09:57:19;;;;;;;;;21.33;18.00;;;;;4.92;100.00;102670.66;4945815;28;47120;-82
2023/01/25 09:59:48;;;;;;;;;31.67;27.33;;;;;4.91;100.00;102679.41;4930417;28;45417;-83
2023/01/25 10:02:35;;;;;;;;;36.00;29.33;;;;;5.00;100.00;102671.19;4958781;28;45379;-83
2023/01/25 10:05:14;;;;;;;;;30.33;27.33;;;;;4.99;100.00;102675.56;4948937;28;45541;-84
2023/01/25 10:07:54;;;;;;;;;17.00;16.00;;;;;4.96;100.00;102669.16;4934129;28;48064;-83
2023/01/25 10:10:41;;;;;;;;;30.67;28.00;;;;;4.87;100.00;102663.25;4945098;28;45855;-82
2023/01/25 10:13:16;;;;;;;;;34.33;30.67;;;;;4.87;100.00;102673.78;4943248;28;45489;-83
2023/01/25 10:15:48;;;;;;;;;30.00;27.00;;;;;4.92;100.00;102682.94;4950701;28;45322;-84
2023/01/25 10:18:47;;;;;;;;;24.33;20.00;;;;;4.94;100.00;102678.69;4952242;28;46892;-82
2023/01/25 10:21:28;;;;;;;;;32.00;28.67;;;;;4.79;100.00;102670.66;4954008;28;44730;-84
2023/01/25 10:24:27;;;;;;;;;27.00;24.33;;;;;4.90;100.00;102676.66;4974272;28;44815;-85
2023/01/25 10:27:01;;;;;;;;;29.33;27.00;;;;;4.93;100.00;102683.06;4976034;28;45541;-82
2023/01/25 10:29:30;;;;;;;;;21.67;20.00;;;;;5.03;100.00;102684.59;4982279;28;47242;-83
2023/01/25 10:32:18;;;;;;;;;23.67;21.67;;;;;5.14;100.00;102682.66;5010092;28;45486;-83
2023/01/25 10:34:53;;;;;;;;;28.00;22.67;;;;;5.10;100.00;102663.09;5009476;28;45028;-83
2023/01/25 10:37:23;;;;;;;;;32.00;29.33;;;;;5.15;100.00;102677.50;4978451;28;45591;-84
2023/01/25 10:40:04;;;;;;;;;34.00;29.67;;;;;5.16;100.00;102678.41;5005879;28;45399;-84
2023/01/25 10:42:37;;;;;;;;;31.67;26.00;;;;;5.04;100.00;102652.13;4981307;28;45386;-82
2023/01/25 10:45:19;;;;;;;;;43.33;34.33;;;;;5.12;100.00;102672.00;4977432;28;44926;-82
2023/01/25 10:47:55;;;;;;;;;35.67;31.33;;;;;5.07;100.00;102654.03;4999976;28;45310;-83
2023/01/25 10:50:41;;;;;;;;;34.33;30.00;;;;;5.07;100.00;102665.53;4979407;28;45507;-82
2023/01/25 10:53:23;;;;;;;;;43.67;35.00;;;;;4.86;100.00;102678.16;4990757;28;45080;-83
2023/01/25 10:56:00;;;;;;;;;31.67;24.67;;;;;4.67;100.00;102669.81;5011708;28;45492;-84
2023/01/25 10:58:44;;;;;;;;;31.00;30.33;;;;;4.61;100.00;102658.03;4984983;28;45630;-80
2023/01/25 11:01:22;;;;;;;;;25.33;19.67;;;;;4.66;100.00;102658.31;4995273;28;45464;-80
2023/01/25 11:03:48;;;;;;;;;38.67;32.33;;;;;4.63;100.00;102657.22;5005766;28;45478;-82
2023/01/25 11:06:27;;;;;;;;;36.33;32.00;;;;;4.66;100.00;102649.50;4988755;28;45590;-79
2023/01/25 11:09:20;;;;;;;;;39.00;34.00;;;;;4.82;100.00;102650.66;5006106;28;45446;-82
2023/01/25 11:12:17;;;;;;;;;42.67;34.33;;;;;4.77;100.00;102651.19;4990744;28;46745;-80
2023/01/25 11:14:43;;;;;;;;;36.67;35.33;;;;;4.63;100.00;102644.06;4990452;28;45555;-81
2023/01/25 11:17:24;;;;;;;;;32.33;31.00;;;;;4.85;100.00;102647.34;4989156;28;45398;-81
2023/01/25 11:20:23;;;;;;;;;32.67;27.00;;;;;4.89;100.00;102636.19;4989560;28;45483;-82
2023/01/25 11:22:54;;;;;;;;;33.67;32.67;;;;;4.90;100.00;102632.72;4968101;28;47625;-82
2023/01/25 11:26:10;;;;;;;;;39.67;31.67;;;;;4.80;100.00;102625.91;5004219;28;44807;-80
2023/01/25 11:28:36;;;;;;;;;42.00;32.67;;;;;4.62;100.00;102611.50;4982576;28;45310;-81
2023/01/25 11:31:02;;;;;;;;;40.33;35.33;;;;;4.75;100.00;102626.44;4990506;28;45348;-79
2023/01/25 11:33:29;;;;;;;;;46.33;37.33;;;;;4.72;100.00;102613.94;4994071;28;46898;-82
2023/01/25 11:36:29;;;;;;;;;41.00;29.00;;;;;4.82;100.00;102618.13;5000313;28;45753;-81
2023/01/25 11:39:25;;;;;;;;;30.00;25.00;;;;;4.80;100.00;102609.19;5016489;28;45323;-80
2023/01/25 11:42:05;;;;;;;;;36.67;29.67;;;;;4.75;100.00;102582.53;5015567;28;45475;-82
2023/01/25 11:45:01;;;;;;;;;39.33;34.00;;;;;4.84;100.00;102589.22;5013904;28;46785;-82
2023/01/25 11:51:32;;;;;;;;;38.67;34.33;;;;;4.75;100.00;102573.72;5023722;28;44948;-82